Terminal Aerodrome Forecast
Issued by NWS Boston, MA

Home | Current Version | Previous Version | Text Only | Print | Product List | Glossary On
Versions: 1 2 3 4 5 6 7 8 9 10 11 12 13 14 15 16 17 18 19 20 21 22 23 24 25 26 27 28 29 30 31 32 33 34 35 36 37 38 39 40 41 42 43 44 45 46 47 48 49 50
000
FTUS41 KBOX 270545
TAFBOS
TAF
KBOS 270545Z 2706/2812 34014G22KT P6SM BKN012 OVC020
     FM270900 33013KT P6SM OVC025
     FM271200 32009KT P6SM BKN050
     FM271500 31009KT P6SM BKN025
     FM272100 32005KT P6SM OVC025
     FM280100 33006KT P6SM OVC025
     FM280300 33006KT P6SM OVC015=

USA.gov is the U.S. government's official web portal to all federal, state and local government web resources and services.